createdAt,value
2023-05-03T00:00:31.357Z,10.94
2023-05-03T00:02:58.351Z,10.97
2023-05-03T00:05:26.513Z,11.02
2023-05-03T00:07:53.460Z,11.06
2023-05-03T00:10:20.736Z,11.09
2023-05-03T00:12:47.772Z,11.11
2023-05-03T00:15:14.759Z,11.13
2023-05-03T00:17:41.778Z,11.14
2023-05-03T00:20:09.746Z,11.14
2023-05-03T00:22:36.968Z,11.14
2023-05-03T00:25:04.977Z,11.14
2023-05-03T00:27:34.301Z,11.13
2023-05-03T00:30:01.709Z,11.11
2023-05-03T00:32:29.088Z,11.09
2023-05-03T00:34:56.861Z,11.10
2023-05-03T00:37:24.492Z,11.09
2023-05-03T00:39:52.222Z,11.08
2023-05-03T00:42:19.451Z,11.05
2023-05-03T00:44:46.423Z,11.00
2023-05-03T00:47:13.527Z,10.96
2023-05-03T00:49:41.400Z,10.92
2023-05-03T00:52:09.333Z,10.89
2023-05-03T00:54:36.522Z,10.86
2023-05-03T00:57:04.724Z,10.84
2023-05-03T00:59:32.906Z,10.84
2023-05-03T01:02:00.265Z,10.84
2023-05-03T01:04:28.304Z,10.82
2023-05-03T01:07:17.478Z,10.78
2023-05-03T01:10:01.105Z,10.76
2023-05-03T01:12:47.581Z,10.75
2023-05-03T01:15:18.399Z,10.69
2023-05-03T01:17:57.669Z,10.62
2023-05-03T01:20:28.449Z,10.58
2023-05-03T01:22:59.143Z,10.55
2023-05-03T01:25:29.233Z,10.52
2023-05-03T01:27:56.214Z,10.49
2023-05-03T01:30:25.169Z,10.44
2023-05-03T01:33:18.535Z,10.41
2023-05-03T01:36:02.624Z,10.39
2023-05-03T01:38:31.356Z,10.37
2023-05-03T01:41:02.722Z,10.34
2023-05-03T01:43:31.652Z,10.28
2023-05-03T01:45:59.227Z,10.25
2023-05-03T01:48:26.268Z,10.21
2023-05-03T01:50:53.265Z,10.16
2023-05-03T01:53:20.444Z,10.12
2023-05-03T01:55:47.381Z,10.07
2023-05-03T01:58:14.359Z,10.04
2023-05-03T02:00:41.420Z,10.00
2023-05-03T02:03:08.541Z,9.97
2023-05-03T02:05:36.267Z,9.95
2023-05-03T02:08:03.742Z,9.92
2023-05-03T02:10:30.962Z,9.89
2023-05-03T02:12:58.313Z,9.87
2023-05-03T02:15:25.444Z,9.86
2023-05-03T02:17:54.341Z,9.84
2023-05-03T02:20:21.651Z,9.82
2023-05-03T02:22:48.620Z,9.78
2023-05-03T02:25:15.772Z,9.74
2023-05-03T02:27:42.753Z,9.69
2023-05-03T02:30:09.812Z,9.66
2023-05-03T02:32:39.731Z,9.61
2023-05-03T02:35:07.456Z,9.57
2023-05-03T02:37:35.249Z,9.53
2023-05-03T02:40:06.067Z,9.51
2023-05-03T02:42:33.348Z,9.51
2023-05-03T02:45:01.298Z,9.53
2023-05-03T02:47:32.865Z,9.55
2023-05-03T02:50:00.236Z,9.57
2023-05-03T02:52:27.635Z,9.58
2023-05-03T02:54:54.776Z,9.57
2023-05-03T02:57:22.303Z,9.54
2023-05-03T02:59:49.432Z,9.52
2023-05-03T03:02:16.537Z,9.50
2023-05-03T03:04:43.553Z,9.49
2023-05-03T03:07:10.590Z,9.50
2023-05-03T03:09:37.640Z,9.52
2023-05-03T03:12:05.825Z,9.54
2023-05-03T03:14:33.210Z,9.56
2023-05-03T03:17:01.213Z,9.58
2023-05-03T03:19:28.731Z,9.60
2023-05-03T03:21:55.748Z,9.62
2023-05-03T03:24:25.343Z,9.65
2023-05-03T03:26:53.159Z,9.69
2023-05-03T03:29:20.570Z,9.72
2023-05-03T03:31:47.821Z,9.74
2023-05-03T03:34:16.651Z,9.75
2023-05-03T03:36:43.735Z,9.78
2023-05-03T03:39:11.008Z,9.81
2023-05-03T03:41:38.198Z,9.85
2023-05-03T03:44:05.477Z,9.88
2023-05-03T03:46:32.886Z,9.90
2023-05-03T03:49:00.249Z,9.92
2023-05-03T03:51:27.558Z,9.95
2023-05-03T03:53:54.680Z,9.98
2023-05-03T03:56:22.507Z,10.01
2023-05-03T03:58:50.062Z,10.04
2023-05-03T04:01:17.150Z,10.07
2023-05-03T04:03:50.280Z,10.11
2023-05-03T04:06:17.776Z,10.17
2023-05-03T04:08:44.960Z,10.25
2023-05-03T04:11:12.639Z,10.35
2023-05-03T04:13:43.560Z,10.46
2023-05-03T04:16:11.073Z,10.58
2023-05-03T04:18:38.236Z,10.71
2023-05-03T04:21:06.104Z,10.83
2023-05-03T04:23:33.439Z,10.95
2023-05-03T04:26:02.535Z,11.04
2023-05-03T04:28:32.867Z,11.12
2023-05-03T04:31:00.358Z,11.21
2023-05-03T04:33:30.040Z,11.32
2023-05-03T04:36:00.493Z,11.44
2023-05-03T04:38:28.438Z,11.55
2023-05-03T04:40:57.255Z,11.67
2023-05-03T04:43:24.586Z,11.75
2023-05-03T04:45:54.827Z,11.84
2023-05-03T04:48:24.391Z,11.95
2023-05-03T04:50:52.621Z,12.06
2023-05-03T04:53:20.449Z,12.16
2023-05-03T04:55:52.758Z,12.23
2023-05-03T04:58:20.099Z,12.32
2023-05-03T05:00:47.563Z,12.40
2023-05-03T05:03:18.913Z,12.50
2023-05-03T05:05:46.527Z,12.65
2023-05-03T05:08:14.237Z,12.78
2023-05-03T05:10:45.397Z,12.97
2023-05-03T05:13:15.469Z,13.11
2023-05-03T05:15:42.531Z,13.22
2023-05-03T05:18:10.556Z,13.39
2023-05-03T05:20:38.752Z,13.56
2023-05-03T05:23:06.875Z,13.67
2023-05-03T05:25:34.020Z,13.81
2023-05-03T05:28:01.720Z,13.95
2023-05-03T05:30:29.167Z,14.10
2023-05-03T05:32:56.425Z,14.23
2023-05-03T05:35:23.594Z,14.30
2023-05-03T05:37:51.122Z,14.40
2023-05-03T05:40:19.220Z,14.54
2023-05-03T05:42:50.654Z,14.76
2023-05-03T05:45:18.324Z,14.97
2023-05-03T05:47:45.853Z,15.15
2023-05-03T05:50:18.267Z,15.26
2023-05-03T05:52:53.306Z,15.33
2023-05-03T05:55:21.329Z,15.42
2023-05-03T05:57:49.584Z,15.46
2023-05-03T06:00:17.680Z,15.51
2023-05-03T06:02:45.307Z,15.58
2023-05-03T06:05:16.430Z,15.71
2023-05-03T06:07:43.464Z,15.84
2023-05-03T06:10:10.699Z,15.90
2023-05-03T06:12:39.997Z,15.99
2023-05-03T06:15:13.262Z,16.06
2023-05-03T06:17:40.670Z,16.21
2023-05-03T06:20:11.987Z,16.37
2023-05-03T06:22:40.245Z,16.49
2023-05-03T06:25:08.307Z,16.60
2023-05-03T06:27:38.550Z,16.76
2023-05-03T06:30:07.135Z,16.81
2023-05-03T06:32:34.303Z,16.83
2023-05-03T06:35:02.321Z,16.83
2023-05-03T06:37:29.808Z,16.87
2023-05-03T06:39:57.249Z,16.96
2023-05-03T06:42:24.482Z,17.09
2023-05-03T06:45:04.071Z,17.21
2023-05-03T06:47:31.210Z,17.33
2023-05-03T06:49:58.308Z,17.39
2023-05-03T06:52:25.224Z,17.49
2023-05-03T06:54:54.258Z,17.62
2023-05-03T06:57:22.590Z,17.77
2023-05-03T06:59:49.673Z,17.94
2023-05-03T07:02:18.122Z,18.00
2023-05-03T07:04:45.080Z,18.06
2023-05-03T07:07:12.033Z,18.21
2023-05-03T07:09:43.273Z,18.30
2023-05-03T07:12:11.165Z,18.33
2023-05-03T07:14:39.782Z,18.32
2023-05-03T07:17:06.659Z,18.26
2023-05-03T07:19:33.546Z,18.20
2023-05-03T07:22:00.686Z,18.15
2023-05-03T07:24:27.724Z,18.13
2023-05-03T07:26:54.705Z,18.23
2023-05-03T07:29:21.802Z,18.39
2023-05-03T07:31:52.021Z,18.39
2023-05-03T07:34:21.077Z,18.39
2023-05-03T07:36:48.186Z,18.49
2023-05-03T07:39:15.228Z,18.47
2023-05-03T07:41:42.330Z,18.38
2023-05-03T07:44:09.450Z,18.28
2023-05-03T07:46:36.375Z,18.30
2023-05-03T07:49:04.423Z,18.31
2023-05-03T07:51:41.268Z,18.42
2023-05-03T07:54:08.260Z,18.64
2023-05-03T07:56:35.337Z,18.86
2023-05-03T07:59:09.416Z,18.94
2023-05-03T08:01:38.190Z,18.94
2023-05-03T08:04:05.833Z,19.02
2023-05-03T08:06:33.410Z,19.16
2023-05-03T08:09:00.927Z,19.16
2023-05-03T08:11:29.307Z,19.19
2023-05-03T08:13:56.345Z,19.26
2023-05-03T08:16:23.468Z,19.34
2023-05-03T08:18:50.564Z,19.42
2023-05-03T08:21:17.765Z,19.53
2023-05-03T08:23:45.180Z,19.60
2023-05-03T08:26:14.273Z,19.68
2023-05-03T08:28:42.200Z,19.58
2023-05-03T08:31:09.587Z,19.49
2023-05-03T08:33:37.428Z,19.49
2023-05-03T08:36:04.652Z,19.62
2023-05-03T08:38:31.592Z,19.72
2023-05-03T08:40:58.957Z,19.86
2023-05-03T08:43:27.872Z,20.07
2023-05-03T08:45:55.043Z,20.36
2023-05-03T08:48:22.544Z,20.51
2023-05-03T08:50:51.797Z,20.59
2023-05-03T08:53:18.751Z,20.47
2023-05-03T08:55:45.794Z,20.30
2023-05-03T08:58:13.432Z,20.26
2023-05-03T09:00:45.220Z,20.20
2023-05-03T09:03:13.140Z,20.11
2023-05-03T09:05:44.325Z,19.98
2023-05-03T09:08:12.887Z,19.96
2023-05-03T09:10:40.574Z,20.20
2023-05-03T09:13:08.142Z,20.43
2023-05-03T09:15:35.529Z,20.70
2023-05-03T09:18:09.793Z,21.01
2023-05-03T09:20:37.628Z,21.15
2023-05-03T09:23:04.542Z,21.16
2023-05-03T09:25:44.332Z,21.08
2023-05-03T09:28:11.896Z,20.88
2023-05-03T09:30:38.842Z,20.81
2023-05-03T09:33:06.198Z,20.92
2023-05-03T09:35:33.415Z,21.10
2023-05-03T09:38:00.625Z,21.46
2023-05-03T09:40:29.242Z,21.67
2023-05-03T09:43:12.035Z,21.31
2023-05-03T09:45:39.112Z,20.95
2023-05-03T09:48:07.344Z,20.88
2023-05-03T09:50:35.572Z,21.12
2023-05-03T09:53:04.052Z,21.41
2023-05-03T09:55:34.883Z,21.44
2023-05-03T09:58:04.430Z,21.59
2023-05-03T10:00:31.596Z,21.84
2023-05-03T10:03:00.319Z,22.04
2023-05-03T10:05:27.383Z,21.86
2023-05-03T10:07:54.441Z,21.72
2023-05-03T10:10:23.427Z,21.77
2023-05-03T10:12:54.151Z,21.80
2023-05-03T10:15:21.291Z,21.62
2023-05-03T10:17:50.393Z,21.45
2023-05-03T10:20:40.978Z,21.55
2023-05-03T10:23:10.154Z,21.71
2023-05-03T10:25:38.268Z,21.54
2023-05-03T10:28:06.315Z,21.35
2023-05-03T10:30:37.386Z,21.31
2023-05-03T10:33:14.336Z,21.33
2023-05-03T10:35:52.500Z,21.33
2023-05-03T10:38:24.822Z,21.37
2023-05-03T10:40:52.057Z,21.58
2023-05-03T10:43:31.210Z,21.89
2023-05-03T10:46:05.694Z,22.12
2023-05-03T10:48:33.471Z,21.95
2023-05-03T10:51:37.453Z,21.96
2023-05-03T10:54:04.664Z,21.86
2023-05-03T10:56:31.589Z,21.79
2023-05-03T10:58:59.206Z,21.96
2023-05-03T11:01:27.259Z,21.97
2023-05-03T11:04:05.584Z,21.90
2023-05-03T11:06:33.438Z,22.17
2023-05-03T11:09:00.609Z,22.44
2023-05-03T11:11:27.514Z,22.62
2023-05-03T11:13:54.659Z,22.44
2023-05-03T11:16:21.824Z,22.35
2023-05-03T11:18:48.921Z,22.47
2023-05-03T11:21:16.425Z,22.64
2023-05-03T11:23:43.570Z,22.81
2023-05-03T11:26:11.046Z,22.69
2023-05-03T11:28:42.180Z,22.56
2023-05-03T11:31:10.106Z,22.45
2023-05-03T11:33:38.327Z,22.25
2023-05-03T11:36:06.536Z,22.01
2023-05-03T11:38:33.886Z,21.86
2023-05-03T11:41:01.183Z,21.76
2023-05-03T11:43:29.043Z,21.82
2023-05-03T11:45:57.802Z,22.06
2023-05-03T11:48:26.367Z,22.28
2023-05-03T11:50:57.322Z,22.51
2023-05-03T11:53:24.769Z,22.73
2023-05-03T11:55:54.080Z,22.95
2023-05-03T11:58:25.257Z,23.13
2023-05-03T12:00:54.161Z,23.19
2023-05-03T12:03:24.642Z,23.04
2023-05-03T12:05:55.408Z,23.08
2023-05-03T12:08:29.952Z,23.16
2023-05-03T12:10:59.442Z,23.29
2023-05-03T12:13:39.370Z,23.41
2023-05-03T12:16:13.732Z,23.57
2023-05-03T12:18:51.204Z,23.74
2023-05-03T12:23:55.793Z,23.90
2023-05-03T12:26:23.426Z,24.04
2023-05-03T12:28:50.625Z,24.14
2023-05-03T12:31:18.492Z,24.10
2023-05-03T12:34:00.987Z,23.96
2023-05-03T12:36:35.520Z,23.68
2023-05-03T12:39:08.688Z,23.32
2023-05-03T12:44:10.169Z,23.41
2023-05-03T12:46:38.584Z,23.50
2023-05-03T12:49:08.578Z,23.41
2023-05-03T12:51:36.402Z,23.44
2023-05-03T12:54:10.137Z,23.38
2023-05-03T12:56:40.141Z,23.14
2023-05-03T12:59:39.372Z,22.91
2023-05-03T13:06:59.353Z,22.98
2023-05-03T13:09:37.193Z,23.22
2023-05-03T13:12:05.765Z,23.38
2023-05-03T13:14:32.822Z,23.48
2023-05-03T13:17:00.386Z,23.54
2023-05-03T13:19:28.764Z,23.51
2023-05-03T13:21:55.658Z,23.32
2023-05-03T13:24:22.525Z,23.17
2023-05-03T13:26:49.673Z,23.11
2023-05-03T13:29:16.668Z,23.02
2023-05-03T13:31:43.550Z,23.06
2023-05-03T13:34:10.483Z,23.13
2023-05-03T13:36:37.432Z,23.18
2023-05-03T13:39:04.468Z,23.26
2023-05-03T13:41:31.686Z,23.34
2023-05-03T13:43:58.579Z,23.33
2023-05-03T13:46:25.538Z,23.27
2023-05-03T13:48:52.913Z,23.18
2023-05-03T13:51:20.054Z,22.96
2023-05-03T13:53:46.926Z,22.96
2023-05-03T13:56:13.932Z,23.06
2023-05-03T13:58:41.257Z,23.12
2023-05-03T14:01:08.145Z,23.21
2023-05-03T14:03:35.295Z,23.33
2023-05-03T14:06:02.779Z,23.45
2023-05-03T14:08:30.261Z,23.56
2023-05-03T14:10:57.306Z,23.64
2023-05-03T14:13:25.039Z,23.69
2023-05-03T14:15:52.328Z,23.72
2023-05-03T14:18:19.503Z,23.72
2023-05-03T14:20:47.422Z,23.69
2023-05-03T14:23:14.315Z,23.62
2023-05-03T14:25:41.343Z,23.54
2023-05-03T14:28:08.269Z,23.50
2023-05-03T14:30:35.213Z,23.45
2023-05-03T14:33:02.104Z,23.37
2023-05-03T14:35:29.330Z,23.33
2023-05-03T14:37:56.283Z,23.28
2023-05-03T14:40:23.204Z,23.24
2023-05-03T14:42:50.245Z,23.22
2023-05-03T14:45:17.324Z,23.20
2023-05-03T14:47:44.305Z,23.13
2023-05-03T14:50:11.337Z,22.99
2023-05-03T14:52:38.614Z,22.87
2023-05-03T14:55:06.846Z,22.80
2023-05-03T14:57:34.207Z,22.76
2023-05-03T15:00:02.565Z,22.73
2023-05-03T15:02:29.961Z,22.66
2023-05-03T15:04:56.875Z,22.61
2023-05-03T15:07:24.082Z,22.58
2023-05-03T15:09:51.529Z,22.54
2023-05-03T15:12:18.448Z,22.51
2023-05-03T15:14:45.791Z,22.44
2023-05-03T15:17:13.024Z,22.36
2023-05-03T15:19:40.092Z,22.28
2023-05-03T15:22:07.199Z,22.23
2023-05-03T15:24:34.206Z,22.21
2023-05-03T15:27:02.916Z,22.16
2023-05-03T15:29:30.030Z,22.13
2023-05-03T15:31:56.930Z,22.09
2023-05-03T15:34:23.841Z,22.05
2023-05-03T15:36:50.855Z,22.02
2023-05-03T15:39:17.816Z,21.97
2023-05-03T15:41:45.852Z,21.95
2023-05-03T15:44:14.952Z,21.91
2023-05-03T15:46:43.102Z,21.88
2023-05-03T15:49:10.307Z,21.86
2023-05-03T15:51:37.635Z,21.85
2023-05-03T15:54:04.624Z,21.83
2023-05-03T15:56:31.605Z,21.82
2023-05-03T15:58:58.466Z,21.78
2023-05-03T16:01:25.566Z,21.75
2023-05-03T16:03:52.423Z,21.72
2023-05-03T16:06:19.551Z,21.71
2023-05-03T16:08:46.718Z,21.67
2023-05-03T16:11:13.735Z,21.64
2023-05-03T16:13:40.706Z,21.63
2023-05-03T16:16:07.824Z,21.61
2023-05-03T16:18:34.936Z,21.59
2023-05-03T16:21:02.837Z,21.56
2023-05-03T16:23:29.850Z,21.54
2023-05-03T16:25:56.867Z,21.52
2023-05-03T16:28:24.026Z,21.48
2023-05-03T16:30:51.910Z,21.39
2023-05-03T16:33:18.798Z,21.34
2023-05-03T16:35:45.922Z,21.32
2023-05-03T16:38:12.870Z,21.27
2023-05-03T16:40:40.617Z,21.14
2023-05-03T16:43:07.962Z,20.97
2023-05-03T16:45:34.977Z,20.91
2023-05-03T16:48:04.797Z,20.90
2023-05-03T16:50:33.342Z,20.88
2023-05-03T16:53:00.213Z,20.83
2023-05-03T16:55:27.131Z,20.79
2023-05-03T16:57:54.188Z,20.64
2023-05-03T17:00:22.011Z,20.49
2023-05-03T17:02:49.204Z,20.41
2023-05-03T17:05:16.521Z,20.35
2023-05-03T17:07:43.534Z,20.33
2023-05-03T17:10:10.615Z,20.32
2023-05-03T17:12:37.694Z,20.31
2023-05-03T17:15:04.964Z,20.29
2023-05-03T17:17:32.826Z,20.26
2023-05-03T17:20:00.063Z,20.18
2023-05-03T17:22:28.254Z,20.07
2023-05-03T17:24:58.036Z,19.99
2023-05-03T17:27:25.409Z,19.92
2023-05-03T17:29:52.397Z,19.87
2023-05-03T17:32:19.300Z,19.82
2023-05-03T17:34:46.287Z,19.78
2023-05-03T17:37:13.201Z,19.74
2023-05-03T17:39:40.147Z,19.69
2023-05-03T17:42:08.223Z,19.63
2023-05-03T17:44:35.079Z,19.56
2023-05-03T17:47:02.451Z,19.50
2023-05-03T17:49:33.136Z,19.41
2023-05-03T17:52:00.253Z,19.32
2023-05-03T17:54:30.443Z,19.23
2023-05-03T17:56:57.416Z,19.13
2023-05-03T17:59:24.289Z,19.00
2023-05-03T18:01:51.231Z,18.89
2023-05-03T18:04:18.157Z,18.81
2023-05-03T18:06:45.164Z,18.73
2023-05-03T18:09:13.332Z,18.66
2023-05-03T18:11:41.465Z,18.60
2023-05-03T18:14:08.481Z,18.54
2023-05-03T18:16:36.112Z,18.47
2023-05-03T18:19:03.910Z,18.45
2023-05-03T18:21:30.915Z,18.45
2023-05-03T18:23:58.102Z,18.47
2023-05-03T18:26:25.557Z,18.40
2023-05-03T18:28:53.618Z,18.29
2023-05-03T18:31:21.606Z,18.20
2023-05-03T18:33:48.999Z,18.14
2023-05-03T18:36:16.957Z,18.04
2023-05-03T18:38:44.403Z,17.91
2023-05-03T18:41:16.110Z,17.79
2023-05-03T18:43:43.713Z,17.67
2023-05-03T18:46:10.961Z,17.56
2023-05-03T18:48:37.780Z,17.46
2023-05-03T18:51:04.953Z,17.35
2023-05-03T18:53:34.391Z,17.24
2023-05-03T18:56:07.108Z,17.12
2023-05-03T18:58:34.010Z,17.00
2023-05-03T19:01:01.339Z,16.90
2023-05-03T19:03:29.693Z,16.81
2023-05-03T19:05:59.771Z,16.75
2023-05-03T19:08:26.763Z,16.68
2023-05-03T19:10:53.751Z,16.60
2023-05-03T19:13:20.781Z,16.49
2023-05-03T19:15:48.065Z,16.37
2023-05-03T19:18:16.636Z,16.27
2023-05-03T19:20:43.997Z,16.18
2023-05-03T19:23:11.080Z,16.09
2023-05-03T19:25:38.171Z,16.02
2023-05-03T19:28:06.879Z,15.96
2023-05-03T19:30:34.214Z,15.89
2023-05-03T19:33:01.424Z,15.83
2023-05-03T19:35:28.420Z,15.77
2023-05-03T19:37:56.116Z,15.70
2023-05-03T19:40:24.860Z,15.63
2023-05-03T19:42:52.651Z,15.57
2023-05-03T19:45:19.876Z,15.52
2023-05-03T19:47:47.667Z,15.46
2023-05-03T19:50:14.723Z,15.42
2023-05-03T19:52:42.336Z,15.37
2023-05-03T19:55:09.513Z,15.33
2023-05-03T19:57:36.633Z,15.27
2023-05-03T20:00:05.589Z,15.21
2023-05-03T20:02:34.024Z,15.16
2023-05-03T20:05:01.154Z,15.12
2023-05-03T20:07:28.073Z,15.07
2023-05-03T20:09:54.973Z,15.00
2023-05-03T20:12:21.807Z,14.94
2023-05-03T20:14:49.186Z,14.90
2023-05-03T20:17:16.396Z,14.85
2023-05-03T20:19:44.007Z,14.79
2023-05-03T20:22:11.493Z,14.73
2023-05-03T20:24:38.341Z,14.70
2023-05-03T20:27:05.297Z,14.66
2023-05-03T20:29:32.357Z,14.63
2023-05-03T20:31:59.461Z,14.60
2023-05-03T20:34:27.206Z,14.59
2023-05-03T20:36:54.643Z,14.56
2023-05-03T20:39:21.532Z,14.52
2023-05-03T20:41:48.455Z,14.48
2023-05-03T20:44:15.692Z,14.45
2023-05-03T20:46:42.768Z,14.42
2023-05-03T20:49:10.340Z,14.39
2023-05-03T20:51:37.495Z,14.35
2023-05-03T20:54:04.510Z,14.30
2023-05-03T20:56:33.501Z,14.27
2023-05-03T20:59:00.875Z,14.21
2023-05-03T21:01:27.820Z,14.15
2023-05-03T21:03:56.861Z,14.10
2023-05-03T21:06:23.875Z,14.04
2023-05-03T21:08:52.819Z,14.00
2023-05-03T21:11:19.826Z,13.98
2023-05-03T21:13:46.782Z,13.92
2023-05-03T21:16:13.709Z,13.87
2023-05-03T21:18:40.806Z,13.83
2023-05-03T21:21:07.748Z,13.77
2023-05-03T21:23:34.760Z,13.75
2023-05-03T21:26:01.705Z,13.73
2023-05-03T21:28:30.580Z,13.68
2023-05-03T21:30:57.538Z,13.63
2023-05-03T21:33:24.636Z,13.58
2023-05-03T21:35:51.647Z,13.55
2023-05-03T21:38:18.702Z,13.52
2023-05-03T21:40:47.289Z,13.51
2023-05-03T21:43:14.408Z,13.51
2023-05-03T21:45:43.404Z,13.49
2023-05-03T21:48:10.460Z,13.45
2023-05-03T21:50:40.559Z,13.42
2023-05-03T21:53:07.398Z,13.40
2023-05-03T21:55:34.457Z,13.37
2023-05-03T21:58:01.601Z,13.36
2023-05-03T22:00:29.533Z,13.34
2023-05-03T22:02:56.686Z,13.33
2023-05-03T22:05:24.431Z,13.31
2023-05-03T22:07:51.451Z,13.30
2023-05-03T22:10:18.890Z,13.28
2023-05-03T22:12:46.352Z,13.25
2023-05-03T22:15:13.454Z,13.19
2023-05-03T22:17:40.487Z,13.14
2023-05-03T22:20:08.499Z,13.11
2023-05-03T22:22:35.663Z,13.08
2023-05-03T22:25:02.633Z,13.05
2023-05-03T22:27:29.499Z,13.02
2023-05-03T22:29:56.939Z,12.99
2023-05-03T22:32:23.931Z,12.97
2023-05-03T22:34:50.910Z,12.94
2023-05-03T22:37:17.905Z,12.91
2023-05-03T22:39:44.798Z,12.86
2023-05-03T22:42:11.743Z,12.81
2023-05-03T22:44:38.652Z,12.78
2023-05-03T22:47:05.656Z,12.76
2023-05-03T22:49:32.621Z,12.73
2023-05-03T22:51:59.579Z,12.72
2023-05-03T22:54:27.107Z,12.69
2023-05-03T22:56:54.793Z,12.66
2023-05-03T22:59:21.683Z,12.63
2023-05-03T23:01:49.770Z,12.61
2023-05-03T23:04:16.926Z,12.58
2023-05-03T23:06:44.355Z,12.56
2023-05-03T23:09:11.956Z,12.55
2023-05-03T23:11:38.913Z,12.53
2023-05-03T23:14:06.302Z,12.49
2023-05-03T23:16:33.526Z,12.46
2023-05-03T23:19:00.448Z,12.42
2023-05-03T23:21:27.566Z,12.38
2023-05-03T23:23:54.682Z,12.35
2023-05-03T23:26:21.912Z,12.32
2023-05-03T23:28:49.439Z,12.29
2023-05-03T23:31:17.159Z,12.26
2023-05-03T23:33:44.517Z,12.23
2023-05-03T23:36:11.541Z,12.21
2023-05-03T23:38:38.534Z,12.19
2023-05-03T23:41:05.495Z,12.17
2023-05-03T23:43:32.896Z,12.16
2023-05-03T23:46:00.001Z,12.17
2023-05-03T23:48:26.962Z,12.15
2023-05-03T23:50:54.098Z,12.12
2023-05-03T23:53:21.062Z,12.08
2023-05-03T23:55:48.077Z,12.05
2023-05-03T23:58:15.133Z,12.04
